Terminal Aerodrome Forecast
Issued by NWS

Home | Current Version | Previous Version | Text Only | Print | Product List | Glossary On
Versions: 1 2 3 4 5 6 7 8 9 10 11 12 13 14 15 16 17 18
000
FTUS41 KILN 271720
TAFLUK
TAF
KLUK 271720Z 2718/2818 31006KT P6SM SCT050
     FM280000 VRB03KT P6SM SKC
     FM280600 00000KT 3SM BR SKC
     FM280900 00000KT 1SM BR FEW002
     FM281200 15003KT P6SM SKC
     FM281500 17008KT P6SM SCT250=

USA.gov is the U.S. government's official web portal to all federal, state and local government web resources and services.